sensor_id;sensor_type;location;lat;lon;timestamp;P1;durP1;ratioP1;P2;durP2;ratioP2
31130;SDS011;20292;50.944;4.034;2023-11-19T00:00:26;14.93;;;2.83;;
31130;SDS011;20292;50.944;4.034;2023-11-19T00:02:52;16.50;;;2.83;;
31130;SDS011;20292;50.944;4.034;2023-11-19T00:05:17;14.40;;;2.35;;
31130;SDS011;20292;50.944;4.034;2023-11-19T00:07:43;17.67;;;3.05;;
31130;SDS011;20292;50.944;4.034;2023-11-19T00:12:35;16.13;;;2.50;;
31130;SDS011;20292;50.944;4.034;2023-11-19T00:15:02;13.90;;;3.47;;
31130;SDS011;20292;50.944;4.034;2023-11-19T00:17:27;19.35;;;3.70;;
31130;SDS011;20292;50.944;4.034;2023-11-19T00:19:53;21.00;;;3.45;;
31130;SDS011;20292;50.944;4.034;2023-11-19T00:22:18;22.73;;;3.75;;
31130;SDS011;20292;50.944;4.034;2023-11-19T00:24:46;16.73;;;2.70;;
31130;SDS011;20292;50.944;4.034;2023-11-19T00:27:11;12.30;;;2.78;;
31130;SDS011;20292;50.944;4.034;2023-11-19T00:29:37;20.17;;;2.80;;
31130;SDS011;20292;50.944;4.034;2023-11-19T00:32:03;19.15;;;3.55;;
31130;SDS011;20292;50.944;4.034;2023-11-19T00:34:30;14.70;;;3.00;;
31130;SDS011;20292;50.944;4.034;2023-11-19T00:36:56;17.13;;;2.78;;
31130;SDS011;20292;50.944;4.034;2023-11-19T00:39:21;23.10;;;2.97;;
31130;SDS011;20292;50.944;4.034;2023-11-19T00:41:47;16.98;;;3.10;;
31130;SDS011;20292;50.944;4.034;2023-11-19T00:44:13;21.55;;;3.20;;
31130;SDS011;20292;50.944;4.034;2023-11-19T00:46:39;17.90;;;3.22;;
31130;SDS011;20292;50.944;4.034;2023-11-19T00:49:05;14.73;;;3.38;;
31130;SDS011;20292;50.944;4.034;2023-11-19T00:51:31;23.80;;;3.63;;
31130;SDS011;20292;50.944;4.034;2023-11-19T00:53:57;24.08;;;3.95;;
31130;SDS011;20292;50.944;4.034;2023-11-19T00:56:24;25.77;;;3.97;;
31130;SDS011;20292;50.944;4.034;2023-11-19T00:58:49;26.98;;;4.13;;
31130;SDS011;20292;50.944;4.034;2023-11-19T01:01:15;27.42;;;4.15;;
31130;SDS011;20292;50.944;4.034;2023-11-19T01:03:40;21.35;;;3.80;;
31130;SDS011;20292;50.944;4.034;2023-11-19T01:06:06;27.08;;;3.58;;
31130;SDS011;20292;50.944;4.034;2023-11-19T01:08:33;25.30;;;4.03;;
31130;SDS011;20292;50.944;4.034;2023-11-19T01:11:00;33.58;;;4.90;;
31130;SDS011;20292;50.944;4.034;2023-11-19T01:13:27;30.65;;;4.82;;
31130;SDS011;20292;50.944;4.034;2023-11-19T01:15:53;25.80;;;4.00;;
31130;SDS011;20292;50.944;4.034;2023-11-19T01:18:18;28.58;;;4.13;;
31130;SDS011;20292;50.944;4.034;2023-11-19T01:20:44;26.25;;;4.68;;
31130;SDS011;20292;50.944;4.034;2023-11-19T01:23:09;24.88;;;4.60;;
31130;SDS011;20292;50.944;4.034;2023-11-19T01:25:35;27.02;;;4.75;;
31130;SDS011;20292;50.944;4.034;2023-11-19T01:28:02;32.65;;;4.35;;
31130;SDS011;20292;50.944;4.034;2023-11-19T01:30:27;25.02;;;4.00;;
31130;SDS011;20292;50.944;4.034;2023-11-19T01:32:53;26.52;;;4.22;;
31130;SDS011;20292;50.944;4.034;2023-11-19T01:35:19;18.27;;;3.60;;
31130;SDS011;20292;50.944;4.034;2023-11-19T01:37:44;27.67;;;4.82;;
31130;SDS011;20292;50.944;4.034;2023-11-19T01:40:10;21.77;;;4.25;;
31130;SDS011;20292;50.944;4.034;2023-11-19T01:42:39;24.02;;;3.70;;
31130;SDS011;20292;50.944;4.034;2023-11-19T01:45:06;25.88;;;3.70;;
31130;SDS011;20292;50.944;4.034;2023-11-19T01:47:34;30.73;;;4.53;;
31130;SDS011;20292;50.944;4.034;2023-11-19T01:50:00;27.90;;;4.55;;
31130;SDS011;20292;50.944;4.034;2023-11-19T01:52:31;26.73;;;4.38;;
31130;SDS011;20292;50.944;4.034;2023-11-19T01:54:59;25.75;;;4.18;;
31130;SDS011;20292;50.944;4.034;2023-11-19T01:57:25;28.60;;;4.30;;
31130;SDS011;20292;50.944;4.034;2023-11-19T01:59:51;30.23;;;4.55;;
31130;SDS011;20292;50.944;4.034;2023-11-19T02:02:17;30.17;;;4.70;;
31130;SDS011;20292;50.944;4.034;2023-11-19T02:04:47;32.35;;;4.82;;
31130;SDS011;20292;50.944;4.034;2023-11-19T02:07:14;25.48;;;4.20;;
31130;SDS011;20292;50.944;4.034;2023-11-19T02:09:42;37.20;;;5.30;;
31130;SDS011;20292;50.944;4.034;2023-11-19T02:12:09;28.55;;;4.38;;
31130;SDS011;20292;50.944;4.034;2023-11-19T02:14:36;29.40;;;4.55;;
31130;SDS011;20292;50.944;4.034;2023-11-19T02:17:02;31.42;;;4.97;;
31130;SDS011;20292;50.944;4.034;2023-11-19T02:19:28;26.05;;;4.22;;
31130;SDS011;20292;50.944;4.034;2023-11-19T02:21:54;37.28;;;4.70;;
31130;SDS011;20292;50.944;4.034;2023-11-19T02:24:21;32.30;;;4.20;;
31130;SDS011;20292;50.944;4.034;2023-11-19T02:26:57;32.00;;;4.55;;
31130;SDS011;20292;50.944;4.034;2023-11-19T02:29:49;35.28;;;5.70;;
31130;SDS011;20292;50.944;4.034;2023-11-19T02:32:15;37.10;;;6.07;;
31130;SDS011;20292;50.944;4.034;2023-11-19T02:34:41;36.83;;;4.40;;
31130;SDS011;20292;50.944;4.034;2023-11-19T02:37:07;38.20;;;4.82;;
31130;SDS011;20292;50.944;4.034;2023-11-19T02:39:33;36.70;;;5.57;;
31130;SDS011;20292;50.944;4.034;2023-11-19T02:41:58;41.20;;;5.57;;
31130;SDS011;20292;50.944;4.034;2023-11-19T02:44:25;28.55;;;4.85;;
31130;SDS011;20292;50.944;4.034;2023-11-19T02:46:53;34.25;;;6.05;;
31130;SDS011;20292;50.944;4.034;2023-11-19T02:49:18;37.97;;;4.70;;
31130;SDS011;20292;50.944;4.034;2023-11-19T02:51:44;37.33;;;5.85;;
31130;SDS011;20292;50.944;4.034;2023-11-19T02:54:10;28.30;;;4.32;;
31130;SDS011;20292;50.944;4.034;2023-11-19T02:56:35;29.38;;;4.50;;
31130;SDS011;20292;50.944;4.034;2023-11-19T02:59:02;36.13;;;4.90;;
31130;SDS011;20292;50.944;4.034;2023-11-19T03:01:39;35.40;;;5.15;;
31130;SDS011;20292;50.944;4.034;2023-11-19T03:04:08;32.25;;;4.75;;
31130;SDS011;20292;50.944;4.034;2023-11-19T03:06:37;37.15;;;5.18;;
31130;SDS011;20292;50.944;4.034;2023-11-19T03:09:02;38.92;;;5.03;;
31130;SDS011;20292;50.944;4.034;2023-11-19T03:11:33;32.45;;;5.50;;
31130;SDS011;20292;50.944;4.034;2023-11-19T03:13:58;36.10;;;5.22;;
31130;SDS011;20292;50.944;4.034;2023-11-19T03:16:24;39.85;;;5.60;;
31130;SDS011;20292;50.944;4.034;2023-11-19T03:18:49;29.90;;;5.88;;
31130;SDS011;20292;50.944;4.034;2023-11-19T03:21:15;33.55;;;4.75;;
31130;SDS011;20292;50.944;4.034;2023-11-19T03:23:41;40.13;;;5.30;;
31130;SDS011;20292;50.944;4.034;2023-11-19T03:26:09;33.53;;;4.68;;
31130;SDS011;20292;50.944;4.034;2023-11-19T03:28:35;35.60;;;5.68;;
31130;SDS011;20292;50.944;4.034;2023-11-19T03:31:04;31.05;;;5.45;;
31130;SDS011;20292;50.944;4.034;2023-11-19T03:33:33;30.60;;;4.25;;
31130;SDS011;20292;50.944;4.034;2023-11-19T03:35:58;30.65;;;4.72;;
31130;SDS011;20292;50.944;4.034;2023-11-19T03:38:24;36.38;;;5.38;;
31130;SDS011;20292;50.944;4.034;2023-11-19T03:40:49;38.45;;;5.10;;
31130;SDS011;20292;50.944;4.034;2023-11-19T03:43:15;34.67;;;5.20;;
31130;SDS011;20292;50.944;4.034;2023-11-19T03:45:41;38.40;;;4.97;;
31130;SDS011;20292;50.944;4.034;2023-11-19T03:48:06;32.22;;;4.85;;
31130;SDS011;20292;50.944;4.034;2023-11-19T03:50:32;31.10;;;4.82;;
31130;SDS011;20292;50.944;4.034;2023-11-19T03:52:57;35.55;;;5.32;;
31130;SDS011;20292;50.944;4.034;2023-11-19T03:55:23;38.55;;;5.43;;
31130;SDS011;20292;50.944;4.034;2023-11-19T03:57:48;37.75;;;4.53;;
31130;SDS011;20292;50.944;4.034;2023-11-19T04:00:14;40.22;;;5.28;;
31130;SDS011;20292;50.944;4.034;2023-11-19T04:02:40;46.50;;;6.50;;
31130;SDS011;20292;50.944;4.034;2023-11-19T04:05:06;41.17;;;5.70;;
31130;SDS011;20292;50.944;4.034;2023-11-19T04:07:32;38.13;;;5.57;;
31130;SDS011;20292;50.944;4.034;2023-11-19T04:09:58;42.15;;;6.03;;
31130;SDS011;20292;50.944;4.034;2023-11-19T04:12:24;35.55;;;5.18;;
31130;SDS011;20292;50.944;4.034;2023-11-19T04:14:50;40.70;;;5.70;;
31130;SDS011;20292;50.944;4.034;2023-11-19T04:17:15;32.95;;;5.57;;
31130;SDS011;20292;50.944;4.034;2023-11-19T04:19:41;45.25;;;5.88;;
31130;SDS011;20292;50.944;4.034;2023-11-19T04:22:07;49.28;;;6.55;;
31130;SDS011;20292;50.944;4.034;2023-11-19T04:24:34;40.95;;;5.82;;
31130;SDS011;20292;50.944;4.034;2023-11-19T04:26:59;34.00;;;5.40;;
31130;SDS011;20292;50.944;4.034;2023-11-19T04:29:25;45.75;;;6.47;;
31130;SDS011;20292;50.944;4.034;2023-11-19T04:31:50;39.40;;;5.68;;
31130;SDS011;20292;50.944;4.034;2023-11-19T04:34:16;47.30;;;6.10;;
31130;SDS011;20292;50.944;4.034;2023-11-19T04:36:42;44.10;;;6.13;;
31130;SDS011;20292;50.944;4.034;2023-11-19T04:39:08;37.25;;;5.55;;
31130;SDS011;20292;50.944;4.034;2023-11-19T04:41:34;48.70;;;6.78;;
31130;SDS011;20292;50.944;4.034;2023-11-19T04:44:01;43.38;;;6.38;;
31130;SDS011;20292;50.944;4.034;2023-11-19T04:46:26;42.42;;;6.45;;
31130;SDS011;20292;50.944;4.034;2023-11-19T04:48:52;38.17;;;5.60;;
31130;SDS011;20292;50.944;4.034;2023-11-19T04:51:18;42.83;;;5.45;;
31130;SDS011;20292;50.944;4.034;2023-11-19T04:53:43;47.38;;;5.80;;
31130;SDS011;20292;50.944;4.034;2023-11-19T04:56:09;49.40;;;6.90;;
31130;SDS011;20292;50.944;4.034;2023-11-19T04:58:36;33.83;;;5.60;;
31130;SDS011;20292;50.944;4.034;2023-11-19T05:01:02;45.80;;;6.18;;
31130;SDS011;20292;50.944;4.034;2023-11-19T05:03:31;47.20;;;6.43;;
31130;SDS011;20292;50.944;4.034;2023-11-19T05:05:57;38.45;;;5.78;;
31130;SDS011;20292;50.944;4.034;2023-11-19T05:08:22;41.65;;;6.70;;
31130;SDS011;20292;50.944;4.034;2023-11-19T05:10:48;40.58;;;6.50;;
31130;SDS011;20292;50.944;4.034;2023-11-19T05:13:14;42.15;;;6.53;;
31130;SDS011;20292;50.944;4.034;2023-11-19T05:15:40;48.85;;;7.80;;
31130;SDS011;20292;50.944;4.034;2023-11-19T05:18:05;35.45;;;5.57;;
31130;SDS011;20292;50.944;4.034;2023-11-19T05:20:31;45.65;;;6.18;;
31130;SDS011;20292;50.944;4.034;2023-11-19T05:22:57;48.50;;;6.25;;
31130;SDS011;20292;50.944;4.034;2023-11-19T05:25:25;55.60;;;7.20;;
31130;SDS011;20292;50.944;4.034;2023-11-19T05:27:51;52.17;;;7.05;;
31130;SDS011;20292;50.944;4.034;2023-11-19T05:30:17;48.85;;;6.50;;
31130;SDS011;20292;50.944;4.034;2023-11-19T05:32:43;46.13;;;6.93;;
31130;SDS011;20292;50.944;4.034;2023-11-19T05:35:08;51.40;;;7.10;;
31130;SDS011;20292;50.944;4.034;2023-11-19T05:37:34;36.10;;;6.20;;
31130;SDS011;20292;50.944;4.034;2023-11-19T05:40:00;41.25;;;5.68;;
31130;SDS011;20292;50.944;4.034;2023-11-19T05:42:28;55.42;;;7.15;;
31130;SDS011;20292;50.944;4.034;2023-11-19T05:44:53;44.10;;;6.45;;
31130;SDS011;20292;50.944;4.034;2023-11-19T05:47:19;47.53;;;6.15;;
31130;SDS011;20292;50.944;4.034;2023-11-19T05:49:44;52.88;;;6.97;;
31130;SDS011;20292;50.944;4.034;2023-11-19T05:52:10;43.85;;;6.25;;
31130;SDS011;20292;50.944;4.034;2023-11-19T05:54:37;41.95;;;6.25;;
31130;SDS011;20292;50.944;4.034;2023-11-19T05:57:06;45.33;;;6.38;;
31130;SDS011;20292;50.944;4.034;2023-11-19T05:59:35;42.78;;;6.00;;
31130;SDS011;20292;50.944;4.034;2023-11-19T06:02:01;45.60;;;6.65;;
31130;SDS011;20292;50.944;4.034;2023-11-19T06:04:27;43.13;;;6.43;;
31130;SDS011;20292;50.944;4.034;2023-11-19T06:06:53;43.65;;;5.28;;
31130;SDS011;20292;50.944;4.034;2023-11-19T06:09:20;41.17;;;5.70;;
31130;SDS011;20292;50.944;4.034;2023-11-19T06:11:48;41.20;;;6.05;;
31130;SDS011;20292;50.944;4.034;2023-11-19T06:14:14;50.30;;;6.75;;
31130;SDS011;20292;50.944;4.034;2023-11-19T06:16:39;46.92;;;7.03;;
31130;SDS011;20292;50.944;4.034;2023-11-19T06:19:05;48.22;;;7.25;;
31130;SDS011;20292;50.944;4.034;2023-11-19T06:21:31;58.15;;;8.63;;
31130;SDS011;20292;50.944;4.034;2023-11-19T06:23:56;46.05;;;7.03;;
31130;SDS011;20292;50.944;4.034;2023-11-19T06:26:23;44.47;;;6.40;;
31130;SDS011;20292;50.944;4.034;2023-11-19T06:28:49;50.72;;;6.03;;
31130;SDS011;20292;50.944;4.034;2023-11-19T06:31:14;52.92;;;7.00;;
31130;SDS011;20292;50.944;4.034;2023-11-19T06:33:41;39.63;;;6.70;;
31130;SDS011;20292;50.944;4.034;2023-11-19T06:36:07;51.22;;;7.25;;
31130;SDS011;20292;50.944;4.034;2023-11-19T06:38:34;53.33;;;6.55;;
31130;SDS011;20292;50.944;4.034;2023-11-19T06:40:59;54.53;;;6.30;;
31130;SDS011;20292;50.944;4.034;2023-11-19T06:43:25;56.03;;;6.72;;
31130;SDS011;20292;50.944;4.034;2023-11-19T06:45:50;48.47;;;7.35;;
31130;SDS011;20292;50.944;4.034;2023-11-19T06:48:16;47.85;;;6.63;;
31130;SDS011;20292;50.944;4.034;2023-11-19T06:50:41;57.67;;;7.10;;
31130;SDS011;20292;50.944;4.034;2023-11-19T06:53:07;47.40;;;7.10;;
31130;SDS011;20292;50.944;4.034;2023-11-19T06:55:35;49.75;;;7.47;;
31130;SDS011;20292;50.944;4.034;2023-11-19T06:58:01;58.00;;;7.40;;
31130;SDS011;20292;50.944;4.034;2023-11-19T07:00:27;48.60;;;6.93;;
31130;SDS011;20292;50.944;4.034;2023-11-19T07:02:53;53.42;;;7.70;;
31130;SDS011;20292;50.944;4.034;2023-11-19T07:05:18;49.95;;;7.78;;
31130;SDS011;20292;50.944;4.034;2023-11-19T07:07:44;43.25;;;6.15;;
31130;SDS011;20292;50.944;4.034;2023-11-19T07:10:11;49.40;;;7.03;;
31130;SDS011;20292;50.944;4.034;2023-11-19T07:12:37;43.50;;;6.40;;
31130;SDS011;20292;50.944;4.034;2023-11-19T07:15:03;45.83;;;6.38;;
31130;SDS011;20292;50.944;4.034;2023-11-19T07:17:30;60.50;;;7.25;;
31130;SDS011;20292;50.944;4.034;2023-11-19T07:19:56;44.67;;;6.40;;
31130;SDS011;20292;50.944;4.034;2023-11-19T07:22:24;44.85;;;6.55;;
31130;SDS011;20292;50.944;4.034;2023-11-19T07:24:50;43.42;;;6.03;;
31130;SDS011;20292;50.944;4.034;2023-11-19T07:27:16;55.17;;;6.55;;
31130;SDS011;20292;50.944;4.034;2023-11-19T07:29:43;51.00;;;7.88;;
31130;SDS011;20292;50.944;4.034;2023-11-19T07:32:08;50.45;;;6.97;;
31130;SDS011;20292;50.944;4.034;2023-11-19T07:34:34;52.90;;;6.10;;
31130;SDS011;20292;50.944;4.034;2023-11-19T07:37:00;43.28;;;7.32;;
31130;SDS011;20292;50.944;4.034;2023-11-19T07:39:27;52.00;;;7.05;;
31130;SDS011;20292;50.944;4.034;2023-11-19T07:41:53;51.17;;;7.22;;
31130;SDS011;20292;50.944;4.034;2023-11-19T07:44:19;44.72;;;6.10;;
31130;SDS011;20292;50.944;4.034;2023-11-19T07:46:46;45.60;;;6.63;;
31130;SDS011;20292;50.944;4.034;2023-11-19T07:49:12;51.03;;;6.43;;
31130;SDS011;20292;50.944;4.034;2023-11-19T07:51:38;48.40;;;6.38;;
31130;SDS011;20292;50.944;4.034;2023-11-19T07:54:04;40.15;;;5.82;;
31130;SDS011;20292;50.944;4.034;2023-11-19T07:56:29;56.35;;;6.20;;
31130;SDS011;20292;50.944;4.034;2023-11-19T07:58:55;48.35;;;6.40;;
31130;SDS011;20292;50.944;4.034;2023-11-19T08:01:21;50.83;;;6.93;;
31130;SDS011;20292;50.944;4.034;2023-11-19T08:03:48;48.85;;;6.93;;
31130;SDS011;20292;50.944;4.034;2023-11-19T08:06:14;44.33;;;6.43;;
31130;SDS011;20292;50.944;4.034;2023-11-19T08:08:39;47.97;;;6.50;;
31130;SDS011;20292;50.944;4.034;2023-11-19T08:11:05;43.50;;;7.13;;
31130;SDS011;20292;50.944;4.034;2023-11-19T08:13:31;33.67;;;5.65;;
31130;SDS011;20292;50.944;4.034;2023-11-19T08:15:56;46.47;;;7.25;;
31130;SDS011;20292;50.944;4.034;2023-11-19T08:18:23;44.20;;;6.95;;
31130;SDS011;20292;50.944;4.034;2023-11-19T08:20:49;43.58;;;6.13;;
31130;SDS011;20292;50.944;4.034;2023-11-19T08:23:17;46.53;;;6.20;;
31130;SDS011;20292;50.944;4.034;2023-11-19T08:25:43;44.08;;;6.15;;
31130;SDS011;20292;50.944;4.034;2023-11-19T08:28:09;37.33;;;5.75;;
31130;SDS011;20292;50.944;4.034;2023-11-19T08:30:35;45.90;;;6.32;;
31130;SDS011;20292;50.944;4.034;2023-11-19T08:33:00;37.72;;;6.05;;
31130;SDS011;20292;50.944;4.034;2023-11-19T08:35:28;41.50;;;5.88;;
31130;SDS011;20292;50.944;4.034;2023-11-19T08:37:54;46.78;;;7.20;;
31130;SDS011;20292;50.944;4.034;2023-11-19T08:40:19;39.67;;;5.53;;
31130;SDS011;20292;50.944;4.034;2023-11-19T08:42:45;37.45;;;6.05;;
31130;SDS011;20292;50.944;4.034;2023-11-19T08:45:10;40.25;;;6.15;;
31130;SDS011;20292;50.944;4.034;2023-11-19T08:47:36;43.67;;;5.85;;
31130;SDS011;20292;50.944;4.034;2023-11-19T08:50:02;38.33;;;5.63;;
31130;SDS011;20292;50.944;4.034;2023-11-19T08:52:29;36.80;;;5.60;;
31130;SDS011;20292;50.944;4.034;2023-11-19T08:54:55;43.88;;;7.15;;
31130;SDS011;20292;50.944;4.034;2023-11-19T08:57:21;45.08;;;6.05;;
31130;SDS011;20292;50.944;4.034;2023-11-19T08:59:46;35.65;;;5.13;;
31130;SDS011;20292;50.944;4.034;2023-11-19T09:02:12;37.25;;;5.82;;
31130;SDS011;20292;50.944;4.034;2023-11-19T09:04:37;47.10;;;6.55;;
31130;SDS011;20292;50.944;4.034;2023-11-19T09:07:03;36.45;;;5.57;;
31130;SDS011;20292;50.944;4.034;2023-11-19T09:09:29;35.28;;;6.00;;
31130;SDS011;20292;50.944;4.034;2023-11-19T09:11:55;37.33;;;5.75;;
31130;SDS011;20292;50.944;4.034;2023-11-19T09:14:20;40.63;;;5.35;;
31130;SDS011;20292;50.944;4.034;2023-11-19T09:16:50;37.17;;;5.43;;
31130;SDS011;20292;50.944;4.034;2023-11-19T09:19:16;28.88;;;5.13;;
31130;SDS011;20292;50.944;4.034;2023-11-19T09:21:42;34.85;;;5.22;;
31130;SDS011;20292;50.944;4.034;2023-11-19T09:24:08;35.80;;;5.55;;
31130;SDS011;20292;50.944;4.034;2023-11-19T09:26:33;35.47;;;5.85;;
31130;SDS011;20292;50.944;4.034;2023-11-19T09:29:01;28.73;;;5.07;;
31130;SDS011;20292;50.944;4.034;2023-11-19T09:31:26;27.50;;;5.70;;
31130;SDS011;20292;50.944;4.034;2023-11-19T09:33:52;25.95;;;4.40;;
31130;SDS011;20292;50.944;4.034;2023-11-19T09:36:17;35.40;;;4.65;;
31130;SDS011;20292;50.944;4.034;2023-11-19T09:38:44;23.80;;;4.95;;
31130;SDS011;20292;50.944;4.034;2023-11-19T09:41:10;27.25;;;4.43;;
31130;SDS011;20292;50.944;4.034;2023-11-19T09:43:41;29.15;;;4.18;;
31130;SDS011;20292;50.944;4.034;2023-11-19T09:46:09;32.47;;;4.85;;
31130;SDS011;20292;50.944;4.034;2023-11-19T09:48:38;28.13;;;4.80;;
31130;SDS011;20292;50.944;4.034;2023-11-19T09:51:05;34.67;;;4.82;;
31130;SDS011;20292;50.944;4.034;2023-11-19T09:53:32;31.13;;;4.72;;
31130;SDS011;20292;50.944;4.034;2023-11-19T09:55:59;28.58;;;5.38;;
31130;SDS011;20292;50.944;4.034;2023-11-19T09:58:27;27.20;;;4.70;;
31130;SDS011;20292;50.944;4.034;2023-11-19T10:00:57;27.17;;;5.03;;
31130;SDS011;20292;50.944;4.034;2023-11-19T10:03:33;23.90;;;4.60;;
31130;SDS011;20292;50.944;4.034;2023-11-19T10:06:04;30.10;;;4.63;;
31130;SDS011;20292;50.944;4.034;2023-11-19T10:08:32;36.05;;;5.10;;
31130;SDS011;20292;50.944;4.034;2023-11-19T10:10:58;33.70;;;5.43;;
31130;SDS011;20292;50.944;4.034;2023-11-19T10:13:30;23.48;;;4.35;;
31130;SDS011;20292;50.944;4.034;2023-11-19T10:15:56;30.92;;;4.93;;
31130;SDS011;20292;50.944;4.034;2023-11-19T10:18:27;33.17;;;5.03;;
31130;SDS011;20292;50.944;4.034;2023-11-19T10:20:53;28.98;;;4.88;;
31130;SDS011;20292;50.944;4.034;2023-11-19T10:23:19;27.13;;;5.07;;
31130;SDS011;20292;50.944;4.034;2023-11-19T10:25:45;31.27;;;5.43;;
31130;SDS011;20292;50.944;4.034;2023-11-19T10:28:11;31.98;;;4.85;;
31130;SDS011;20292;50.944;4.034;2023-11-19T10:30:39;27.05;;;4.88;;
31130;SDS011;20292;50.944;4.034;2023-11-19T10:33:07;32.67;;;5.65;;
31130;SDS011;20292;50.944;4.034;2023-11-19T10:35:52;34.90;;;5.50;;
31130;SDS011;20292;50.944;4.034;2023-11-19T10:38:19;23.77;;;4.25;;
31130;SDS011;20292;50.944;4.034;2023-11-19T10:40:45;34.90;;;5.65;;
31130;SDS011;20292;50.944;4.034;2023-11-19T10:43:10;36.08;;;5.28;;
31130;SDS011;20292;50.944;4.034;2023-11-19T10:45:36;35.10;;;5.85;;
31130;SDS011;20292;50.944;4.034;2023-11-19T10:48:03;31.70;;;4.45;;
31130;SDS011;20292;50.944;4.034;2023-11-19T10:50:36;32.03;;;5.10;;
31130;SDS011;20292;50.944;4.034;2023-11-19T10:53:06;36.15;;;5.18;;
31130;SDS011;20292;50.944;4.034;2023-11-19T10:55:34;33.90;;;5.75;;
31130;SDS011;20292;50.944;4.034;2023-11-19T10:58:07;25.98;;;5.10;;
31130;SDS011;20292;50.944;4.034;2023-11-19T11:00:38;30.90;;;4.40;;
31130;SDS011;20292;50.944;4.034;2023-11-19T11:03:19;33.17;;;5.50;;
31130;SDS011;20292;50.944;4.034;2023-11-19T11:05:49;27.27;;;4.90;;
31130;SDS011;20292;50.944;4.034;2023-11-19T11:08:16;31.60;;;4.75;;
31130;SDS011;20292;50.944;4.034;2023-11-19T11:10:43;33.88;;;5.05;;
31130;SDS011;20292;50.944;4.034;2023-11-19T11:13:19;32.47;;;5.22;;
31130;SDS011;20292;50.944;4.034;2023-11-19T11:15:48;29.15;;;4.65;;
31130;SDS011;20292;50.944;4.034;2023-11-19T11:18:15;31.05;;;5.35;;
31130;SDS011;20292;50.944;4.034;2023-11-19T11:20:44;31.08;;;5.00;;
31130;SDS011;20292;50.944;4.034;2023-11-19T11:26:04;33.88;;;5.47;;
31130;SDS011;20292;50.944;4.034;2023-11-19T11:29:04;31.05;;;5.13;;
31130;SDS011;20292;50.944;4.034;2023-11-19T11:37:39;37.13;;;5.85;;
31130;SDS011;20292;50.944;4.034;2023-11-19T11:40:16;31.52;;;5.22;;
31130;SDS011;20292;50.944;4.034;2023-11-19T11:42:43;32.72;;;5.35;;
31130;SDS011;20292;50.944;4.034;2023-11-19T11:45:12;33.67;;;5.50;;
31130;SDS011;20292;50.944;4.034;2023-11-19T11:50:14;30.25;;;5.75;;
31130;SDS011;20292;50.944;4.034;2023-11-19T11:55:27;32.42;;;5.30;;
31130;SDS011;20292;50.944;4.034;2023-11-19T11:57:54;34.28;;;5.70;;
31130;SDS011;20292;50.944;4.034;2023-11-19T12:00:21;30.10;;;5.15;;
31130;SDS011;20292;50.944;4.034;2023-11-19T12:03:08;33.63;;;5.28;;
31130;SDS011;20292;50.944;4.034;2023-11-19T12:05:43;30.92;;;4.22;;
31130;SDS011;20292;50.944;4.034;2023-11-19T12:08:10;35.15;;;5.88;;
31130;SDS011;20292;50.944;4.034;2023-11-19T12:13:15;29.20;;;4.60;;
31130;SDS011;20292;50.944;4.034;2023-11-19T12:18:29;28.63;;;4.80;;
31130;SDS011;20292;50.944;4.034;2023-11-19T12:20:59;30.05;;;5.10;;
31130;SDS011;20292;50.944;4.034;2023-11-19T12:23:28;33.58;;;4.85;;
31130;SDS011;20292;50.944;4.034;2023-11-19T12:25:54;30.67;;;4.47;;
31130;SDS011;20292;50.944;4.034;2023-11-19T12:28:20;27.38;;;4.85;;
31130;SDS011;20292;50.944;4.034;2023-11-19T12:30:47;28.13;;;4.75;;
31130;SDS011;20292;50.944;4.034;2023-11-19T12:33:13;29.05;;;4.53;;
31130;SDS011;20292;50.944;4.034;2023-11-19T12:35:40;38.15;;;5.25;;
31130;SDS011;20292;50.944;4.034;2023-11-19T12:38:07;33.10;;;5.45;;
31130;SDS011;20292;50.944;4.034;2023-11-19T12:40:32;30.13;;;4.65;;
31130;SDS011;20292;50.944;4.034;2023-11-19T12:42:58;31.70;;;5.32;;
31130;SDS011;20292;50.944;4.034;2023-11-19T12:45:27;28.52;;;5.03;;
31130;SDS011;20292;50.944;4.034;2023-11-19T12:48:09;33.45;;;5.95;;
31130;SDS011;20292;50.944;4.034;2023-11-19T12:50:50;23.13;;;4.22;;
31130;SDS011;20292;50.944;4.034;2023-11-19T12:53:16;26.95;;;4.57;;
31130;SDS011;20292;50.944;4.034;2023-11-19T12:55:41;31.60;;;5.45;;
31130;SDS011;20292;50.944;4.034;2023-11-19T12:58:07;37.63;;;6.03;;
31130;SDS011;20292;50.944;4.034;2023-11-19T13:00:32;37.22;;;5.88;;
31130;SDS011;20292;50.944;4.034;2023-11-19T13:02:58;28.55;;;5.15;;
31130;SDS011;20292;50.944;4.034;2023-11-19T13:05:30;35.75;;;6.35;;
31130;SDS011;20292;50.944;4.034;2023-11-19T13:10:25;34.38;;;4.88;;
31130;SDS011;20292;50.944;4.034;2023-11-19T13:13:02;32.50;;;4.93;;
31130;SDS011;20292;50.944;4.034;2023-11-19T13:15:33;34.40;;;5.82;;
31130;SDS011;20292;50.944;4.034;2023-11-19T13:18:00;33.75;;;5.25;;
31130;SDS011;20292;50.944;4.034;2023-11-19T13:20:26;41.45;;;6.28;;
31130;SDS011;20292;50.944;4.034;2023-11-19T13:22:55;40.45;;;5.35;;
31130;SDS011;20292;50.944;4.034;2023-11-19T13:25:21;33.90;;;5.43;;
31130;SDS011;20292;50.944;4.034;2023-11-19T13:27:47;40.63;;;5.57;;
31130;SDS011;20292;50.944;4.034;2023-11-19T13:30:13;32.15;;;5.10;;
31130;SDS011;20292;50.944;4.034;2023-11-19T13:32:38;34.42;;;5.70;;
31130;SDS011;20292;50.944;4.034;2023-11-19T13:35:04;38.80;;;5.53;;
31130;SDS011;20292;50.944;4.034;2023-11-19T13:37:30;28.00;;;4.68;;
31130;SDS011;20292;50.944;4.034;2023-11-19T13:39:56;31.85;;;4.88;;
31130;SDS011;20292;50.944;4.034;2023-11-19T13:42:21;26.70;;;5.00;;
31130;SDS011;20292;50.944;4.034;2023-11-19T13:44:47;29.35;;;5.00;;
31130;SDS011;20292;50.944;4.034;2023-11-19T13:47:12;29.60;;;5.18;;
31130;SDS011;20292;50.944;4.034;2023-11-19T13:49:38;33.97;;;5.05;;
31130;SDS011;20292;50.944;4.034;2023-11-19T13:52:04;30.13;;;5.43;;
31130;SDS011;20292;50.944;4.034;2023-11-19T13:54:30;27.63;;;5.28;;
31130;SDS011;20292;50.944;4.034;2023-11-19T13:56:56;27.80;;;4.93;;
31130;SDS011;20292;50.944;4.034;2023-11-19T13:59:25;37.03;;;5.78;;
31130;SDS011;20292;50.944;4.034;2023-11-19T14:01:51;31.48;;;5.00;;
31130;SDS011;20292;50.944;4.034;2023-11-19T14:04:16;29.90;;;4.78;;
31130;SDS011;20292;50.944;4.034;2023-11-19T14:06:44;33.45;;;5.43;;
31130;SDS011;20292;50.944;4.034;2023-11-19T14:09:10;35.45;;;5.45;;
31130;SDS011;20292;50.944;4.034;2023-11-19T14:11:36;30.35;;;4.50;;
31130;SDS011;20292;50.944;4.034;2023-11-19T14:14:01;38.42;;;5.53;;
31130;SDS011;20292;50.944;4.034;2023-11-19T14:16:27;34.10;;;5.28;;
31130;SDS011;20292;50.944;4.034;2023-11-19T14:18:52;39.45;;;5.43;;
31130;SDS011;20292;50.944;4.034;2023-11-19T14:21:19;29.25;;;4.95;;
31130;SDS011;20292;50.944;4.034;2023-11-19T14:23:45;31.63;;;5.20;;
31130;SDS011;20292;50.944;4.034;2023-11-19T14:26:11;36.25;;;5.60;;
31130;SDS011;20292;50.944;4.034;2023-11-19T14:28:37;36.15;;;5.15;;
31130;SDS011;20292;50.944;4.034;2023-11-19T14:31:03;30.08;;;5.40;;
31130;SDS011;20292;50.944;4.034;2023-11-19T14:33:29;35.55;;;5.05;;
31130;SDS011;20292;50.944;4.034;2023-11-19T14:35:55;29.42;;;5.15;;
31130;SDS011;20292;50.944;4.034;2023-11-19T14:38:20;25.55;;;3.97;;
31130;SDS011;20292;50.944;4.034;2023-11-19T14:40:46;33.80;;;4.45;;
31130;SDS011;20292;50.944;4.034;2023-11-19T14:43:12;35.75;;;5.85;;
31130;SDS011;20292;50.944;4.034;2023-11-19T14:45:40;34.30;;;6.38;;
31130;SDS011;20292;50.944;4.034;2023-11-19T14:48:06;30.70;;;4.20;;
31130;SDS011;20292;50.944;4.034;2023-11-19T14:50:31;28.20;;;4.88;;
31130;SDS011;20292;50.944;4.034;2023-11-19T14:52:57;27.08;;;4.78;;
31130;SDS011;20292;50.944;4.034;2023-11-19T14:55:23;36.40;;;4.68;;